sensor_id;sensor_type;location;lat;lon;timestamp;temperature;humidity
7366;DHT22;3723;52.220;8.792;2023-08-24T00:00:31;14.10;99.90
7366;DHT22;3723;52.220;8.792;2023-08-24T00:02:59;14.10;99.90
7366;DHT22;3723;52.220;8.792;2023-08-24T00:05:28;14.10;99.90
7366;DHT22;3723;52.220;8.792;2023-08-24T00:07:56;14.10;99.90
7366;DHT22;3723;52.220;8.792;2023-08-24T00:10:25;14.00;99.90
7366;DHT22;3723;52.220;8.792;2023-08-24T00:13:00;14.00;99.90
7366;DHT22;3723;52.220;8.792;2023-08-24T00:15:57;13.90;99.90
7366;DHT22;3723;52.220;8.792;2023-08-24T00:18:53;13.90;99.90
7366;DHT22;3723;52.220;8.792;2023-08-24T00:21:19;13.90;99.90
7366;DHT22;3723;52.220;8.792;2023-08-24T00:23:51;13.90;99.90
7366;DHT22;3723;52.220;8.792;2023-08-24T00:26:18;13.80;99.90
7366;DHT22;3723;52.220;8.792;2023-08-24T00:28:56;13.80;99.90
7366;DHT22;3723;52.220;8.792;2023-08-24T00:31:23;13.80;99.90
7366;DHT22;3723;52.220;8.792;2023-08-24T00:33:50;13.80;99.90
7366;DHT22;3723;52.220;8.792;2023-08-24T00:36:17;13.80;99.90
7366;DHT22;3723;52.220;8.792;2023-08-24T00:41:49;13.70;99.90
7366;DHT22;3723;52.220;8.792;2023-08-24T00:49:33;13.70;99.90
7366;DHT22;3723;52.220;8.792;2023-08-24T01:08:23;13.70;99.90
7366;DHT22;3723;52.220;8.792;2023-08-24T01:37:26;13.20;99.90
7366;DHT22;3723;52.220;8.792;2023-08-24T02:12:37;13.00;99.90
7366;DHT22;3723;52.220;8.792;2023-08-24T02:15:27;13.00;99.90
7366;DHT22;3723;52.220;8.792;2023-08-24T02:18:14;12.90;99.90
7366;DHT22;3723;52.220;8.792;2023-08-24T02:21:22;12.90;99.90
7366;DHT22;3723;52.220;8.792;2023-08-24T02:24:20;12.90;99.90
7366;DHT22;3723;52.220;8.792;2023-08-24T02:31:05;13.00;99.90
7366;DHT22;3723;52.220;8.792;2023-08-24T02:38:00;13.00;99.90
7366;DHT22;3723;52.220;8.792;2023-08-24T02:40:59;13.00;99.90
7366;DHT22;3723;52.220;8.792;2023-08-24T02:43:47;12.90;99.90
7366;DHT22;3723;52.220;8.792;2023-08-24T02:46:43;12.80;99.90
7366;DHT22;3723;52.220;8.792;2023-08-24T02:49:33;12.80;99.90
7366;DHT22;3723;52.220;8.792;2023-08-24T02:52:01;12.80;99.90
7366;DHT22;3723;52.220;8.792;2023-08-24T02:54:32;12.80;99.90
7366;DHT22;3723;52.220;8.792;2023-08-24T02:56:59;12.80;99.90
7366;DHT22;3723;52.220;8.792;2023-08-24T02:59:56;12.80;99.90
7366;DHT22;3723;52.220;8.792;2023-08-24T03:02:31;12.80;99.90
7366;DHT22;3723;52.220;8.792;2023-08-24T03:08:49;12.80;99.90
7366;DHT22;3723;52.220;8.792;2023-08-24T03:11:42;12.80;99.90
7366;DHT22;3723;52.220;8.792;2023-08-24T03:14:32;12.90;99.90
7366;DHT22;3723;52.220;8.792;2023-08-24T03:18:01;13.00;99.90
7366;DHT22;3723;52.220;8.792;2023-08-24T03:21:00;13.10;99.90
7366;DHT22;3723;52.220;8.792;2023-08-24T03:24:40;13.00;99.90
7366;DHT22;3723;52.220;8.792;2023-08-24T03:27:27;13.00;99.90
7366;DHT22;3723;52.220;8.792;2023-08-24T03:33:28;13.00;99.90
7366;DHT22;3723;52.220;8.792;2023-08-24T03:36:37;13.00;99.90
7366;DHT22;3723;52.220;8.792;2023-08-24T03:39:13;13.00;99.90
7366;DHT22;3723;52.220;8.792;2023-08-24T03:41:50;13.10;99.90
7366;DHT22;3723;52.220;8.792;2023-08-24T03:44:41;13.10;99.90
7366;DHT22;3723;52.220;8.792;2023-08-24T03:54:21;13.00;99.90
7366;DHT22;3723;52.220;8.792;2023-08-24T03:59:57;13.00;99.90
7366;DHT22;3723;52.220;8.792;2023-08-24T04:02:51;13.00;99.90
7366;DHT22;3723;52.220;8.792;2023-08-24T04:05:46;13.10;99.90
7366;DHT22;3723;52.220;8.792;2023-08-24T04:08:35;13.10;99.90
7366;DHT22;3723;52.220;8.792;2023-08-24T04:11:34;13.20;99.90
7366;DHT22;3723;52.220;8.792;2023-08-24T04:24:23;13.50;99.90
7366;DHT22;3723;52.220;8.792;2023-08-24T04:30:36;13.60;99.90
7366;DHT22;3723;52.220;8.792;2023-08-24T04:33:38;13.60;99.90
7366;DHT22;3723;52.220;8.792;2023-08-24T04:36:18;13.70;99.90
7366;DHT22;3723;52.220;8.792;2023-08-24T04:38:46;13.70;99.90
7366;DHT22;3723;52.220;8.792;2023-08-24T04:41:15;13.80;99.90
7366;DHT22;3723;52.220;8.792;2023-08-24T04:43:44;13.80;99.90
7366;DHT22;3723;52.220;8.792;2023-08-24T04:46:15;13.80;99.90
7366;DHT22;3723;52.220;8.792;2023-08-24T04:48:52;13.80;99.90
7366;DHT22;3723;52.220;8.792;2023-08-24T04:51:40;14.00;99.90
7366;DHT22;3723;52.220;8.792;2023-08-24T04:54:20;14.00;99.90
7366;DHT22;3723;52.220;8.792;2023-08-24T04:56:53;14.10;99.90
7366;DHT22;3723;52.220;8.792;2023-08-24T04:59:23;14.20;99.90
7366;DHT22;3723;52.220;8.792;2023-08-24T05:01:59;14.20;99.90
7366;DHT22;3723;52.220;8.792;2023-08-24T05:04:38;14.30;99.90
7366;DHT22;3723;52.220;8.792;2023-08-24T05:07:21;14.30;99.90
7366;DHT22;3723;52.220;8.792;2023-08-24T05:10:29;14.30;99.90
7366;DHT22;3723;52.220;8.792;2023-08-24T05:13:33;14.30;99.90
7366;DHT22;3723;52.220;8.792;2023-08-24T05:16:16;14.30;99.90
7366;DHT22;3723;52.220;8.792;2023-08-24T05:19:14;14.30;99.90
7366;DHT22;3723;52.220;8.792;2023-08-24T05:21:57;14.30;99.90
7366;DHT22;3723;52.220;8.792;2023-08-24T05:24:33;14.30;99.90
7366;DHT22;3723;52.220;8.792;2023-08-24T05:27:09;14.30;99.90
7366;DHT22;3723;52.220;8.792;2023-08-24T05:29:37;14.40;99.90
7366;DHT22;3723;52.220;8.792;2023-08-24T05:32:10;14.40;99.90
7366;DHT22;3723;52.220;8.792;2023-08-24T05:34:44;14.50;99.90
7366;DHT22;3723;52.220;8.792;2023-08-24T05:37:11;14.50;99.90
7366;DHT22;3723;52.220;8.792;2023-08-24T05:39:50;14.60;99.90
7366;DHT22;3723;52.220;8.792;2023-08-24T05:42:36;14.70;99.90
7366;DHT22;3723;52.220;8.792;2023-08-24T05:45:12;14.80;99.90
7366;DHT22;3723;52.220;8.792;2023-08-24T05:47:57;14.70;99.90
7366;DHT22;3723;52.220;8.792;2023-08-24T05:50:46;14.80;99.90
7366;DHT22;3723;52.220;8.792;2023-08-24T05:53:14;14.80;99.90
7366;DHT22;3723;52.220;8.792;2023-08-24T05:55:42;14.80;99.90
7366;DHT22;3723;52.220;8.792;2023-08-24T05:58:09;14.90;99.90
7366;DHT22;3723;52.220;8.792;2023-08-24T06:00:36;15.00;99.90
7366;DHT22;3723;52.220;8.792;2023-08-24T06:03:26;15.00;99.90
7366;DHT22;3723;52.220;8.792;2023-08-24T06:06:01;15.10;72.90
7366;DHT22;3723;52.220;8.792;2023-08-24T06:08:28;15.20;12.60
7366;DHT22;3723;52.220;8.792;2023-08-24T06:11:02;15.20;1.00
7366;DHT22;3723;52.220;8.792;2023-08-24T06:14:04;15.20;1.00
7366;DHT22;3723;52.220;8.792;2023-08-24T06:16:49;15.30;1.00
7366;DHT22;3723;52.220;8.792;2023-08-24T06:19:31;15.40;1.00
7366;DHT22;3723;52.220;8.792;2023-08-24T06:22:25;15.50;99.90
7366;DHT22;3723;52.220;8.792;2023-08-24T06:29:03;15.80;1.00
7366;DHT22;3723;52.220;8.792;2023-08-24T06:31:42;16.00;99.90
7366;DHT22;3723;52.220;8.792;2023-08-24T06:34:09;16.30;1.00
7366;DHT22;3723;52.220;8.792;2023-08-24T06:36:41;16.40;99.90
7366;DHT22;3723;52.220;8.792;2023-08-24T06:39:33;16.60;1.00
7366;DHT22;3723;52.220;8.792;2023-08-24T06:42:17;16.80;99.90
7366;DHT22;3723;52.220;8.792;2023-08-24T06:44:44;17.00;11.00
7366;DHT22;3723;52.220;8.792;2023-08-24T06:47:32;17.20;1.00
7366;DHT22;3723;52.220;8.792;2023-08-24T06:50:06;17.40;99.90
7366;DHT22;3723;52.220;8.792;2023-08-24T06:52:34;17.60;99.90
7366;DHT22;3723;52.220;8.792;2023-08-24T06:55:26;17.80;1.00
7366;DHT22;3723;52.220;8.792;2023-08-24T06:57:54;17.80;1.00
7366;DHT22;3723;52.220;8.792;2023-08-24T07:00:39;18.00;99.90
7366;DHT22;3723;52.220;8.792;2023-08-24T07:03:06;18.00;99.90
7366;DHT22;3723;52.220;8.792;2023-08-24T07:05:34;18.10;99.90
7366;DHT22;3723;52.220;8.792;2023-08-24T07:08:01;18.30;99.90
7366;DHT22;3723;52.220;8.792;2023-08-24T07:10:33;18.40;99.90
7366;DHT22;3723;52.220;8.792;2023-08-24T07:13:00;18.50;99.90
7366;DHT22;3723;52.220;8.792;2023-08-24T07:15:28;18.60;99.90
7366;DHT22;3723;52.220;8.792;2023-08-24T07:18:09;18.50;79.40
7366;DHT22;3723;52.220;8.792;2023-08-24T07:20:41;18.90;99.90
7366;DHT22;3723;52.220;8.792;2023-08-24T07:26:54;21.00;99.90
7366;DHT22;3723;52.220;8.792;2023-08-24T07:29:21;22.20;15.00
7366;DHT22;3723;52.220;8.792;2023-08-24T07:32:22;23.10;1.00
7366;DHT22;3723;52.220;8.792;2023-08-24T07:34:49;23.90;1.00
7366;DHT22;3723;52.220;8.792;2023-08-24T07:37:23;24.70;1.00
7366;DHT22;3723;52.220;8.792;2023-08-24T07:39:51;25.30;1.00
7366;DHT22;3723;52.220;8.792;2023-08-24T07:42:43;25.90;1.00
7366;DHT22;3723;52.220;8.792;2023-08-24T07:45:13;26.30;1.00
7366;DHT22;3723;52.220;8.792;2023-08-24T07:47:47;26.90;1.00
7366;DHT22;3723;52.220;8.792;2023-08-24T07:50:15;27.40;1.00
7366;DHT22;3723;52.220;8.792;2023-08-24T07:52:42;27.70;1.00
7366;DHT22;3723;52.220;8.792;2023-08-24T07:55:10;28.20;1.00
7366;DHT22;3723;52.220;8.792;2023-08-24T07:57:42;28.40;1.00
7366;DHT22;3723;52.220;8.792;2023-08-24T08:00:10;28.60;1.00
7366;DHT22;3723;52.220;8.792;2023-08-24T08:02:41;28.80;1.00
7366;DHT22;3723;52.220;8.792;2023-08-24T08:05:08;29.10;1.00
7366;DHT22;3723;52.220;8.792;2023-08-24T08:07:39;29.40;1.00
7366;DHT22;3723;52.220;8.792;2023-08-24T08:10:07;29.50;99.90
7366;DHT22;3723;52.220;8.792;2023-08-24T08:12:34;29.60;99.90
7366;DHT22;3723;52.220;8.792;2023-08-24T08:15:04;29.80;99.90
7366;DHT22;3723;52.220;8.792;2023-08-24T08:17:32;29.90;99.90
7366;DHT22;3723;52.220;8.792;2023-08-24T08:19:59;30.10;99.90
7366;DHT22;3723;52.220;8.792;2023-08-24T08:22:28;30.20;99.90
7366;DHT22;3723;52.220;8.792;2023-08-24T08:24:55;30.30;99.90
7366;DHT22;3723;52.220;8.792;2023-08-24T08:27:23;30.30;99.90
7366;DHT22;3723;52.220;8.792;2023-08-24T08:29:54;30.40;99.90
7366;DHT22;3723;52.220;8.792;2023-08-24T08:32:23;30.30;99.90
7366;DHT22;3723;52.220;8.792;2023-08-24T08:34:53;30.30;99.90
7366;DHT22;3723;52.220;8.792;2023-08-24T08:37:20;30.40;99.90
7366;DHT22;3723;52.220;8.792;2023-08-24T08:39:47;30.60;99.90
7366;DHT22;3723;52.220;8.792;2023-08-24T08:42:14;30.80;99.90
7366;DHT22;3723;52.220;8.792;2023-08-24T08:44:41;31.10;99.90
7366;DHT22;3723;52.220;8.792;2023-08-24T08:47:11;31.30;99.90
7366;DHT22;3723;52.220;8.792;2023-08-24T08:49:42;31.60;99.90
7366;DHT22;3723;52.220;8.792;2023-08-24T08:52:10;31.80;99.90
7366;DHT22;3723;52.220;8.792;2023-08-24T08:54:37;31.90;99.90
7366;DHT22;3723;52.220;8.792;2023-08-24T08:57:04;32.00;99.90
7366;DHT22;3723;52.220;8.792;2023-08-24T08:59:38;31.90;99.90
7366;DHT22;3723;52.220;8.792;2023-08-24T09:02:06;31.90;99.90
7366;DHT22;3723;52.220;8.792;2023-08-24T09:04:36;32.00;99.90
7366;DHT22;3723;52.220;8.792;2023-08-24T09:07:06;32.20;99.90
7366;DHT22;3723;52.220;8.792;2023-08-24T09:09:36;32.20;99.90
7366;DHT22;3723;52.220;8.792;2023-08-24T09:12:05;32.30;99.90
7366;DHT22;3723;52.220;8.792;2023-08-24T09:14:35;32.40;99.90
7366;DHT22;3723;52.220;8.792;2023-08-24T09:17:19;32.50;99.90
7366;DHT22;3723;52.220;8.792;2023-08-24T09:19:49;32.40;99.90
7366;DHT22;3723;52.220;8.792;2023-08-24T09:22:18;32.40;99.90
7366;DHT22;3723;52.220;8.792;2023-08-24T09:24:45;32.60;99.90
7366;DHT22;3723;52.220;8.792;2023-08-24T09:27:16;32.70;99.90
7366;DHT22;3723;52.220;8.792;2023-08-24T09:29:47;32.80;99.90
7366;DHT22;3723;52.220;8.792;2023-08-24T09:32:14;32.90;99.90
7366;DHT22;3723;52.220;8.792;2023-08-24T09:34:41;33.10;99.90
7366;DHT22;3723;52.220;8.792;2023-08-24T09:37:13;33.00;99.90
7366;DHT22;3723;52.220;8.792;2023-08-24T09:39:42;33.00;99.90
7366;DHT22;3723;52.220;8.792;2023-08-24T09:42:09;33.00;99.90
7366;DHT22;3723;52.220;8.792;2023-08-24T09:44:37;32.90;99.90
7366;DHT22;3723;52.220;8.792;2023-08-24T09:47:09;32.60;99.90
7366;DHT22;3723;52.220;8.792;2023-08-24T09:49:36;32.30;99.90
7366;DHT22;3723;52.220;8.792;2023-08-24T09:52:07;32.40;99.90
7366;DHT22;3723;52.220;8.792;2023-08-24T09:54:37;32.70;99.90
7366;DHT22;3723;52.220;8.792;2023-08-24T09:57:09;32.90;99.90
7366;DHT22;3723;52.220;8.792;2023-08-24T10:00:06;33.30;99.90
7366;DHT22;3723;52.220;8.792;2023-08-24T10:02:44;33.60;99.90
7366;DHT22;3723;52.220;8.792;2023-08-24T10:05:14;34.10;99.90
7366;DHT22;3723;52.220;8.792;2023-08-24T10:07:48;34.40;99.90
7366;DHT22;3723;52.220;8.792;2023-08-24T10:10:16;34.70;99.90
7366;DHT22;3723;52.220;8.792;2023-08-24T10:12:49;34.80;99.90
7366;DHT22;3723;52.220;8.792;2023-08-24T10:15:18;34.90;99.90
7366;DHT22;3723;52.220;8.792;2023-08-24T10:17:48;35.20;99.90
7366;DHT22;3723;52.220;8.792;2023-08-24T10:20:18;35.60;99.90
7366;DHT22;3723;52.220;8.792;2023-08-24T10:22:46;35.60;99.90
7366;DHT22;3723;52.220;8.792;2023-08-24T10:25:16;35.50;99.90
7366;DHT22;3723;52.220;8.792;2023-08-24T10:28:03;35.30;99.90
7366;DHT22;3723;52.220;8.792;2023-08-24T10:30:31;34.90;99.90
7366;DHT22;3723;52.220;8.792;2023-08-24T10:33:13;34.90;99.90
7366;DHT22;3723;52.220;8.792;2023-08-24T10:35:41;34.90;99.90
7366;DHT22;3723;52.220;8.792;2023-08-24T10:38:23;35.20;99.90
7366;DHT22;3723;52.220;8.792;2023-08-24T10:40:51;35.30;99.90
7366;DHT22;3723;52.220;8.792;2023-08-24T10:43:22;35.50;99.90
7366;DHT22;3723;52.220;8.792;2023-08-24T10:45:57;35.80;99.90
7366;DHT22;3723;52.220;8.792;2023-08-24T10:48:28;35.40;99.90
7366;DHT22;3723;52.220;8.792;2023-08-24T10:51:17;35.20;99.90
7366;DHT22;3723;52.220;8.792;2023-08-24T10:53:51;35.30;99.90
7366;DHT22;3723;52.220;8.792;2023-08-24T10:56:39;35.50;99.90
7366;DHT22;3723;52.220;8.792;2023-08-24T10:59:14;36.00;99.90
7366;DHT22;3723;52.220;8.792;2023-08-24T11:01:42;36.20;99.90
7366;DHT22;3723;52.220;8.792;2023-08-24T11:04:10;35.90;99.90
7366;DHT22;3723;52.220;8.792;2023-08-24T11:06:52;35.80;99.90
7366;DHT22;3723;52.220;8.792;2023-08-24T11:09:19;35.90;99.90
7366;DHT22;3723;52.220;8.792;2023-08-24T11:11:56;36.00;99.90
7366;DHT22;3723;52.220;8.792;2023-08-24T11:14:26;36.10;99.90
7366;DHT22;3723;52.220;8.792;2023-08-24T11:16:57;36.30;99.90
7366;DHT22;3723;52.220;8.792;2023-08-24T11:20:02;36.30;99.90
7366;DHT22;3723;52.220;8.792;2023-08-24T11:22:32;36.20;99.90
7366;DHT22;3723;52.220;8.792;2023-08-24T11:25:01;36.50;99.90
7366;DHT22;3723;52.220;8.792;2023-08-24T11:27:31;36.70;99.90
7366;DHT22;3723;52.220;8.792;2023-08-24T11:30:01;36.90;99.90
7366;DHT22;3723;52.220;8.792;2023-08-24T11:32:30;37.20;99.90
7366;DHT22;3723;52.220;8.792;2023-08-24T11:34:57;37.60;99.90
7366;DHT22;3723;52.220;8.792;2023-08-24T11:37:26;37.80;99.90
7366;DHT22;3723;52.220;8.792;2023-08-24T11:39:53;38.00;99.90
7366;DHT22;3723;52.220;8.792;2023-08-24T11:42:20;37.90;99.90
7366;DHT22;3723;52.220;8.792;2023-08-24T11:44:54;37.80;99.90
7366;DHT22;3723;52.220;8.792;2023-08-24T11:47:24;37.90;99.90
7366;DHT22;3723;52.220;8.792;2023-08-24T11:50:03;37.90;99.90
7366;DHT22;3723;52.220;8.792;2023-08-24T11:52:31;37.50;99.90
7366;DHT22;3723;52.220;8.792;2023-08-24T11:55:03;37.50;99.90
7366;DHT22;3723;52.220;8.792;2023-08-24T11:58:00;37.10;99.90
7366;DHT22;3723;52.220;8.792;2023-08-24T12:00:27;37.00;99.90
7366;DHT22;3723;52.220;8.792;2023-08-24T12:02:58;37.10;99.90
7366;DHT22;3723;52.220;8.792;2023-08-24T12:05:26;37.10;99.90
7366;DHT22;3723;52.220;8.792;2023-08-24T12:07:54;37.20;99.90
7366;DHT22;3723;52.220;8.792;2023-08-24T12:10:21;36.90;99.90
7366;DHT22;3723;52.220;8.792;2023-08-24T12:12:49;36.60;99.90
7366;DHT22;3723;52.220;8.792;2023-08-24T12:15:17;36.70;99.90
7366;DHT22;3723;52.220;8.792;2023-08-24T12:17:46;37.10;99.90
7366;DHT22;3723;52.220;8.792;2023-08-24T12:20:21;37.20;99.90
7366;DHT22;3723;52.220;8.792;2023-08-24T12:22:52;37.30;99.90
7366;DHT22;3723;52.220;8.792;2023-08-24T12:25:22;37.20;99.90
7366;DHT22;3723;52.220;8.792;2023-08-24T12:27:50;36.90;99.90
7366;DHT22;3723;52.220;8.792;2023-08-24T12:30:18;36.70;99.90
7366;DHT22;3723;52.220;8.792;2023-08-24T12:32:46;36.90;99.90
7366;DHT22;3723;52.220;8.792;2023-08-24T12:35:16;37.00;99.90
7366;DHT22;3723;52.220;8.792;2023-08-24T12:37:53;36.70;99.90
7366;DHT22;3723;52.220;8.792;2023-08-24T12:40:35;36.30;99.90
7366;DHT22;3723;52.220;8.792;2023-08-24T12:43:06;35.90;99.90
7366;DHT22;3723;52.220;8.792;2023-08-24T12:45:34;35.50;99.90
7366;DHT22;3723;52.220;8.792;2023-08-24T12:48:05;35.30;99.90
7366;DHT22;3723;52.220;8.792;2023-08-24T12:50:43;35.10;99.90
7366;DHT22;3723;52.220;8.792;2023-08-24T12:53:12;35.10;99.90
7366;DHT22;3723;52.220;8.792;2023-08-24T12:55:43;35.10;99.90
7366;DHT22;3723;52.220;8.792;2023-08-24T12:58:12;35.10;99.90
7366;DHT22;3723;52.220;8.792;2023-08-24T13:00:39;35.30;99.90
7366;DHT22;3723;52.220;8.792;2023-08-24T13:03:06;35.70;99.90
7366;DHT22;3723;52.220;8.792;2023-08-24T13:05:36;36.30;99.90
7366;DHT22;3723;52.220;8.792;2023-08-24T13:08:04;36.80;99.90
7366;DHT22;3723;52.220;8.792;2023-08-24T13:10:33;36.90;99.90
7366;DHT22;3723;52.220;8.792;2023-08-24T13:13:02;36.80;99.90
7366;DHT22;3723;52.220;8.792;2023-08-24T13:15:33;36.70;99.90
7366;DHT22;3723;52.220;8.792;2023-08-24T13:18:01;36.80;99.90
7366;DHT22;3723;52.220;8.792;2023-08-24T13:20:31;36.60;99.90
7366;DHT22;3723;52.220;8.792;2023-08-24T13:23:01;36.40;99.90
7366;DHT22;3723;52.220;8.792;2023-08-24T13:25:32;36.40;99.90
7366;DHT22;3723;52.220;8.792;2023-08-24T13:27:59;36.10;99.90
7366;DHT22;3723;52.220;8.792;2023-08-24T13:30:26;35.70;99.90
7366;DHT22;3723;52.220;8.792;2023-08-24T13:32:55;35.50;99.90
7366;DHT22;3723;52.220;8.792;2023-08-24T13:35:29;35.10;99.90
7366;DHT22;3723;52.220;8.792;2023-08-24T13:37:56;35.00;99.90
7366;DHT22;3723;52.220;8.792;2023-08-24T13:40:26;34.80;99.90
7366;DHT22;3723;52.220;8.792;2023-08-24T13:42:55;34.60;99.90
7366;DHT22;3723;52.220;8.792;2023-08-24T13:45:21;34.50;99.90
7366;DHT22;3723;52.220;8.792;2023-08-24T13:47:58;34.50;99.90
7366;DHT22;3723;52.220;8.792;2023-08-24T13:50:32;34.20;99.90
7366;DHT22;3723;52.220;8.792;2023-08-24T13:52:58;33.80;99.90
7366;DHT22;3723;52.220;8.792;2023-08-24T13:55:25;33.40;99.90
7366;DHT22;3723;52.220;8.792;2023-08-24T13:58:00;33.10;99.90
7366;DHT22;3723;52.220;8.792;2023-08-24T14:00:33;33.00;99.90
7366;DHT22;3723;52.220;8.792;2023-08-24T14:03:06;33.10;99.90
7366;DHT22;3723;52.220;8.792;2023-08-24T14:05:38;33.00;99.90
7366;DHT22;3723;52.220;8.792;2023-08-24T14:08:06;33.20;99.90
7366;DHT22;3723;52.220;8.792;2023-08-24T14:10:34;33.40;99.90
7366;DHT22;3723;52.220;8.792;2023-08-24T14:13:05;33.80;99.90
7366;DHT22;3723;52.220;8.792;2023-08-24T14:15:33;34.10;99.90
7366;DHT22;3723;52.220;8.792;2023-08-24T14:18:01;34.40;99.90
7366;DHT22;3723;52.220;8.792;2023-08-24T14:20:31;34.70;99.90
7366;DHT22;3723;52.220;8.792;2023-08-24T14:23:04;34.30;99.90
7366;DHT22;3723;52.220;8.792;2023-08-24T14:25:31;34.10;99.90
7366;DHT22;3723;52.220;8.792;2023-08-24T14:28:00;33.70;99.90
7366;DHT22;3723;52.220;8.792;2023-08-24T14:30:31;33.20;99.90
7366;DHT22;3723;52.220;8.792;2023-08-24T14:33:07;32.50;99.90
7366;DHT22;3723;52.220;8.792;2023-08-24T14:35:52;32.00;99.90
7366;DHT22;3723;52.220;8.792;2023-08-24T14:38:23;31.70;99.90
7366;DHT22;3723;52.220;8.792;2023-08-24T14:40:50;31.40;99.90
7366;DHT22;3723;52.220;8.792;2023-08-24T14:43:17;31.00;99.90
7366;DHT22;3723;52.220;8.792;2023-08-24T14:45:45;30.60;99.90
7366;DHT22;3723;52.220;8.792;2023-08-24T14:48:18;30.20;99.90
7366;DHT22;3723;52.220;8.792;2023-08-24T14:50:48;30.00;99.90
7366;DHT22;3723;52.220;8.792;2023-08-24T14:53:15;29.70;99.90
7366;DHT22;3723;52.220;8.792;2023-08-24T14:55:42;29.60;99.90
7366;DHT22;3723;52.220;8.792;2023-08-24T14:58:09;29.50;99.90
7366;DHT22;3723;52.220;8.792;2023-08-24T15:00:36;29.30;99.90
7366;DHT22;3723;52.220;8.792;2023-08-24T15:03:05;29.00;99.90
7366;DHT22;3723;52.220;8.792;2023-08-24T15:05:37;28.80;99.90
7366;DHT22;3723;52.220;8.792;2023-08-24T15:08:05;28.60;99.90
7366;DHT22;3723;52.220;8.792;2023-08-24T15:10:33;28.30;99.90
7366;DHT22;3723;52.220;8.792;2023-08-24T15:13:02;28.10;99.90
7366;DHT22;3723;52.220;8.792;2023-08-24T15:15:31;27.90;99.90
7366;DHT22;3723;52.220;8.792;2023-08-24T15:17:58;27.80;99.90
7366;DHT22;3723;52.220;8.792;2023-08-24T15:20:33;27.60;99.90
7366;DHT22;3723;52.220;8.792;2023-08-24T15:23:00;27.50;99.90
7366;DHT22;3723;52.220;8.792;2023-08-24T15:25:30;27.30;99.90
7366;DHT22;3723;52.220;8.792;2023-08-24T15:31:09;27.10;99.90
7366;DHT22;3723;52.220;8.792;2023-08-24T15:36:04;26.70;99.90
7366;DHT22;3723;52.220;8.792;2023-08-24T15:38:31;26.50;99.90
7366;DHT22;3723;52.220;8.792;2023-08-24T15:41:24;26.20;99.90
7366;DHT22;3723;52.220;8.792;2023-08-24T15:43:51;25.90;99.90
7366;DHT22;3723;52.220;8.792;2023-08-24T15:46:40;25.70;99.90
7366;DHT22;3723;52.220;8.792;2023-08-24T15:49:09;25.60;99.90
7366;DHT22;3723;52.220;8.792;2023-08-24T15:55:11;25.70;99.90
7366;DHT22;3723;52.220;8.792;2023-08-24T15:57:39;25.90;99.90
7366;DHT22;3723;52.220;8.792;2023-08-24T16:00:07;26.00;99.90
7366;DHT22;3723;52.220;8.792;2023-08-24T16:02:36;26.20;99.90
7366;DHT22;3723;52.220;8.792;2023-08-24T16:05:04;26.30;99.90
7366;DHT22;3723;52.220;8.792;2023-08-24T16:07:31;26.50;99.90
7366;DHT22;3723;52.220;8.792;2023-08-24T16:09:58;26.60;99.90
7366;DHT22;3723;52.220;8.792;2023-08-24T16:12:30;26.70;99.90
7366;DHT22;3723;52.220;8.792;2023-08-24T16:14:58;26.80;99.90
7366;DHT22;3723;52.220;8.792;2023-08-24T16:17:24;26.80;99.90
7366;DHT22;3723;52.220;8.792;2023-08-24T16:19:52;26.80;99.90
7366;DHT22;3723;52.220;8.792;2023-08-24T16:22:18;26.80;99.90
7366;DHT22;3723;52.220;8.792;2023-08-24T16:24:51;26.80;99.90
7366;DHT22;3723;52.220;8.792;2023-08-24T16:27:18;26.80;99.90
7366;DHT22;3723;52.220;8.792;2023-08-24T16:29:46;26.80;99.90
7366;DHT22;3723;52.220;8.792;2023-08-24T16:32:13;26.80;99.90
7366;DHT22;3723;52.220;8.792;2023-08-24T16:34:56;26.80;99.90
7366;DHT22;3723;52.220;8.792;2023-08-24T16:37:30;26.70;99.90
7366;DHT22;3723;52.220;8.792;2023-08-24T16:39:57;26.70;99.90
7366;DHT22;3723;52.220;8.792;2023-08-24T16:42:24;26.60;99.90
7366;DHT22;3723;52.220;8.792;2023-08-24T16:44:58;26.60;99.90
7366;DHT22;3723;52.220;8.792;2023-08-24T16:47:25;26.50;99.90
7366;DHT22;3723;52.220;8.792;2023-08-24T16:49:52;26.50;99.90
7366;DHT22;3723;52.220;8.792;2023-08-24T16:52:19;26.40;99.90
7366;DHT22;3723;52.220;8.792;2023-08-24T16:54:48;26.40;99.90
7366;DHT22;3723;52.220;8.792;2023-08-24T16:57:18;26.30;99.90
7366;DHT22;3723;52.220;8.792;2023-08-24T16:59:45;26.30;99.90
7366;DHT22;3723;52.220;8.792;2023-08-24T17:02:14;26.20;99.90
7366;DHT22;3723;52.220;8.792;2023-08-24T17:04:41;26.20;99.90
7366;DHT22;3723;52.220;8.792;2023-08-24T17:07:07;26.10;99.90
7366;DHT22;3723;52.220;8.792;2023-08-24T17:09:35;26.00;99.90
7366;DHT22;3723;52.220;8.792;2023-08-24T17:12:02;26.00;99.90
7366;DHT22;3723;52.220;8.792;2023-08-24T17:14:32;25.90;99.90
7366;DHT22;3723;52.220;8.792;2023-08-24T17:17:00;25.90;99.90
7366;DHT22;3723;52.220;8.792;2023-08-24T17:19:46;25.80;99.90
7366;DHT22;3723;52.220;8.792;2023-08-24T17:22:13;25.70;99.90
7366;DHT22;3723;52.220;8.792;2023-08-24T17:24:46;25.60;99.90
7366;DHT22;3723;52.220;8.792;2023-08-24T17:27:13;25.50;99.90
7366;DHT22;3723;52.220;8.792;2023-08-24T17:29:40;25.40;99.90
7366;DHT22;3723;52.220;8.792;2023-08-24T17:32:15;25.40;99.90
7366;DHT22;3723;52.220;8.792;2023-08-24T17:34:52;25.30;99.90
7366;DHT22;3723;52.220;8.792;2023-08-24T17:37:19;25.10;99.90
7366;DHT22;3723;52.220;8.792;2023-08-24T17:39:46;25.00;99.90
7366;DHT22;3723;52.220;8.792;2023-08-24T17:42:13;24.90;99.90
7366;DHT22;3723;52.220;8.792;2023-08-24T17:44:46;24.80;99.90
7366;DHT22;3723;52.220;8.792;2023-08-24T17:47:18;24.70;99.90
7366;DHT22;3723;52.220;8.792;2023-08-24T17:49:45;24.60;99.90
7366;DHT22;3723;52.220;8.792;2023-08-24T17:52:13;24.60;99.90
7366;DHT22;3723;52.220;8.792;2023-08-24T17:54:57;24.50;99.90
7366;DHT22;3723;52.220;8.792;2023-08-24T17:57:24;24.50;99.90
7366;DHT22;3723;52.220;8.792;2023-08-24T17:59:52;24.40;99.90
7366;DHT22;3723;52.220;8.792;2023-08-24T18:02:19;24.40;99.90
7366;DHT22;3723;52.220;8.792;2023-08-24T18:04:46;24.30;99.90
7366;DHT22;3723;52.220;8.792;2023-08-24T18:07:14;24.20;99.90
7366;DHT22;3723;52.220;8.792;2023-08-24T18:09:41;24.10;99.90
7366;DHT22;3723;52.220;8.792;2023-08-24T18:12:08;24.10;99.90
7366;DHT22;3723;52.220;8.792;2023-08-24T18:14:35;24.00;99.90
7366;DHT22;3723;52.220;8.792;2023-08-24T18:17:02;23.90;99.90
7366;DHT22;3723;52.220;8.792;2023-08-24T18:19:30;23.80;99.90
7366;DHT22;3723;52.220;8.792;2023-08-24T18:21:57;23.70;99.90
7366;DHT22;3723;52.220;8.792;2023-08-24T18:24:27;23.60;99.90
7366;DHT22;3723;52.220;8.792;2023-08-24T18:26:58;23.50;99.90
7366;DHT22;3723;52.220;8.792;2023-08-24T18:29:27;23.40;99.90
7366;DHT22;3723;52.220;8.792;2023-08-24T18:31:54;23.30;99.90
7366;DHT22;3723;52.220;8.792;2023-08-24T18:34:21;23.20;99.90
7366;DHT22;3723;52.220;8.792;2023-08-24T18:36:51;23.10;99.90
7366;DHT22;3723;52.220;8.792;2023-08-24T18:39:43;23.10;99.90
7366;DHT22;3723;52.220;8.792;2023-08-24T18:42:12;23.00;99.90
7366;DHT22;3723;52.220;8.792;2023-08-24T19:08:22;22.90;99.90
7366;DHT22;3723;52.220;8.792;2023-08-24T20:34:12;21.30;99.90
7366;DHT22;3723;52.220;8.792;2023-08-24T21:13:36;20.40;99.90
7366;DHT22;3723;52.220;8.792;2023-08-24T21:19:23;20.30;99.90
7366;DHT22;3723;52.220;8.792;2023-08-24T21:22:13;20.20;99.90
7366;DHT22;3723;52.220;8.792;2023-08-24T21:24:50;20.10;99.90
7366;DHT22;3723;52.220;8.792;2023-08-24T21:27:38;20.00;99.90
7366;DHT22;3723;52.220;8.792;2023-08-24T21:30:32;19.90;99.90